sensor_id;sensor_type;location;lat;lon;timestamp;P1;durP1;ratioP1;P2;durP2;ratioP2
56136;SDS011;42008;52.934;5.884;2023-05-07T00:01:41;32.60;;;24.10;;
56136;SDS011;42008;52.934;5.884;2023-05-07T00:04:07;31.47;;;23.27;;
56136;SDS011;42008;52.934;5.884;2023-05-07T00:06:33;31.70;;;23.47;;
56136;SDS011;42008;52.934;5.884;2023-05-07T00:08:59;32.13;;;24.97;;
56136;SDS011;42008;52.934;5.884;2023-05-07T00:11:25;32.60;;;23.83;;
56136;SDS011;42008;52.934;5.884;2023-05-07T00:13:52;34.17;;;25.17;;
56136;SDS011;42008;52.934;5.884;2023-05-07T00:16:17;31.40;;;24.63;;
56136;SDS011;42008;52.934;5.884;2023-05-07T00:18:43;31.93;;;24.93;;
56136;SDS011;42008;52.934;5.884;2023-05-07T00:21:08;36.47;;;25.77;;
56136;SDS011;42008;52.934;5.884;2023-05-07T00:23:34;31.57;;;23.83;;
56136;SDS011;42008;52.934;5.884;2023-05-07T00:26:00;30.97;;;22.87;;
56136;SDS011;42008;52.934;5.884;2023-05-07T00:28:25;35.93;;;24.87;;
56136;SDS011;42008;52.934;5.884;2023-05-07T00:30:51;36.13;;;26.23;;
56136;SDS011;42008;52.934;5.884;2023-05-07T00:33:17;33.20;;;24.90;;
56136;SDS011;42008;52.934;5.884;2023-05-07T00:35:43;36.17;;;25.53;;
56136;SDS011;42008;52.934;5.884;2023-05-07T00:38:08;37.37;;;26.23;;
56136;SDS011;42008;52.934;5.884;2023-05-07T00:40:34;34.70;;;26.80;;
56136;SDS011;42008;52.934;5.884;2023-05-07T00:42:59;37.57;;;26.17;;
56136;SDS011;42008;52.934;5.884;2023-05-07T00:45:26;32.23;;;24.77;;
56136;SDS011;42008;52.934;5.884;2023-05-07T00:47:56;34.97;;;25.73;;
56136;SDS011;42008;52.934;5.884;2023-05-07T00:50:23;34.30;;;25.27;;
56136;SDS011;42008;52.934;5.884;2023-05-07T00:52:49;37.33;;;28.23;;
56136;SDS011;42008;52.934;5.884;2023-05-07T00:55:14;35.07;;;26.47;;
56136;SDS011;42008;52.934;5.884;2023-05-07T00:57:40;36.43;;;26.13;;
56136;SDS011;42008;52.934;5.884;2023-05-07T01:00:07;37.40;;;26.93;;
56136;SDS011;42008;52.934;5.884;2023-05-07T01:02:34;32.83;;;24.57;;
56136;SDS011;42008;52.934;5.884;2023-05-07T01:05:00;33.77;;;26.37;;
56136;SDS011;42008;52.934;5.884;2023-05-07T01:07:28;42.20;;;28.37;;
56136;SDS011;42008;52.934;5.884;2023-05-07T01:09:55;35.80;;;25.93;;
56136;SDS011;42008;52.934;5.884;2023-05-07T01:12:21;38.27;;;27.70;;
56136;SDS011;42008;52.934;5.884;2023-05-07T01:14:48;35.67;;;28.47;;
56136;SDS011;42008;52.934;5.884;2023-05-07T01:17:15;41.20;;;27.63;;
56136;SDS011;42008;52.934;5.884;2023-05-07T01:19:41;37.77;;;28.23;;
56136;SDS011;42008;52.934;5.884;2023-05-07T01:22:07;38.97;;;28.30;;
56136;SDS011;42008;52.934;5.884;2023-05-07T01:24:36;36.33;;;27.77;;
56136;SDS011;42008;52.934;5.884;2023-05-07T01:27:02;37.87;;;27.97;;
56136;SDS011;42008;52.934;5.884;2023-05-07T01:29:28;36.63;;;27.53;;
56136;SDS011;42008;52.934;5.884;2023-05-07T01:31:54;36.00;;;27.97;;
56136;SDS011;42008;52.934;5.884;2023-05-07T01:34:23;36.47;;;27.40;;
56136;SDS011;42008;52.934;5.884;2023-05-07T01:36:52;38.60;;;30.37;;
56136;SDS011;42008;52.934;5.884;2023-05-07T01:39:26;38.10;;;27.13;;
56136;SDS011;42008;52.934;5.884;2023-05-07T01:41:54;38.30;;;28.93;;
56136;SDS011;42008;52.934;5.884;2023-05-07T01:44:21;35.30;;;26.90;;
56136;SDS011;42008;52.934;5.884;2023-05-07T01:46:47;38.50;;;26.80;;
56136;SDS011;42008;52.934;5.884;2023-05-07T01:49:13;33.83;;;26.17;;
56136;SDS011;42008;52.934;5.884;2023-05-07T01:51:40;31.47;;;25.57;;
56136;SDS011;42008;52.934;5.884;2023-05-07T01:54:06;36.67;;;27.40;;
56136;SDS011;42008;52.934;5.884;2023-05-07T01:56:33;30.50;;;23.67;;
56136;SDS011;42008;52.934;5.884;2023-05-07T01:58:59;30.47;;;23.90;;
56136;SDS011;42008;52.934;5.884;2023-05-07T02:01:25;29.77;;;23.20;;
56136;SDS011;42008;52.934;5.884;2023-05-07T02:03:51;27.93;;;21.90;;
56136;SDS011;42008;52.934;5.884;2023-05-07T02:06:16;26.97;;;20.27;;
56136;SDS011;42008;52.934;5.884;2023-05-07T02:08:42;29.33;;;20.50;;
56136;SDS011;42008;52.934;5.884;2023-05-07T02:11:07;34.53;;;21.63;;
56136;SDS011;42008;52.934;5.884;2023-05-07T02:13:33;29.03;;;20.20;;
56136;SDS011;42008;52.934;5.884;2023-05-07T02:15:59;26.37;;;19.00;;
56136;SDS011;42008;52.934;5.884;2023-05-07T02:18:25;25.70;;;19.37;;
56136;SDS011;42008;52.934;5.884;2023-05-07T02:20:51;21.73;;;17.77;;
56136;SDS011;42008;52.934;5.884;2023-05-07T02:23:16;24.33;;;19.83;;
56136;SDS011;42008;52.934;5.884;2023-05-07T02:25:42;23.40;;;18.40;;
56136;SDS011;42008;52.934;5.884;2023-05-07T02:28:07;26.80;;;18.93;;
56136;SDS011;42008;52.934;5.884;2023-05-07T02:30:33;21.93;;;18.17;;
56136;SDS011;42008;52.934;5.884;2023-05-07T02:32:58;24.73;;;18.07;;
56136;SDS011;42008;52.934;5.884;2023-05-07T02:35:24;26.27;;;18.57;;
56136;SDS011;42008;52.934;5.884;2023-05-07T02:37:51;25.70;;;19.20;;
56136;SDS011;42008;52.934;5.884;2023-05-07T02:40:16;25.97;;;19.03;;
56136;SDS011;42008;52.934;5.884;2023-05-07T02:42:42;27.30;;;19.80;;
56136;SDS011;42008;52.934;5.884;2023-05-07T02:45:07;26.27;;;20.50;;
56136;SDS011;42008;52.934;5.884;2023-05-07T02:47:34;25.17;;;20.80;;
56136;SDS011;42008;52.934;5.884;2023-05-07T02:49:59;20.60;;;17.67;;
56136;SDS011;42008;52.934;5.884;2023-05-07T02:52:25;28.40;;;21.03;;
56136;SDS011;42008;52.934;5.884;2023-05-07T02:54:50;33.20;;;22.37;;
56136;SDS011;42008;52.934;5.884;2023-05-07T02:57:16;28.03;;;21.50;;
56136;SDS011;42008;52.934;5.884;2023-05-07T02:59:42;26.90;;;20.50;;
56136;SDS011;42008;52.934;5.884;2023-05-07T03:02:08;29.73;;;22.57;;
56136;SDS011;42008;52.934;5.884;2023-05-07T03:04:33;30.17;;;23.83;;
56136;SDS011;42008;52.934;5.884;2023-05-07T03:06:59;29.20;;;24.07;;
56136;SDS011;42008;52.934;5.884;2023-05-07T03:09:25;33.63;;;25.73;;
56136;SDS011;42008;52.934;5.884;2023-05-07T03:11:51;30.20;;;24.30;;
56136;SDS011;42008;52.934;5.884;2023-05-07T03:14:16;32.43;;;23.93;;
56136;SDS011;42008;52.934;5.884;2023-05-07T03:16:42;33.37;;;26.33;;
56136;SDS011;42008;52.934;5.884;2023-05-07T03:19:07;30.03;;;25.87;;
56136;SDS011;42008;52.934;5.884;2023-05-07T03:21:33;36.27;;;27.10;;
56136;SDS011;42008;52.934;5.884;2023-05-07T03:23:59;32.87;;;26.80;;
56136;SDS011;42008;52.934;5.884;2023-05-07T03:26:25;33.60;;;27.80;;
56136;SDS011;42008;52.934;5.884;2023-05-07T03:28:50;35.57;;;27.40;;
56136;SDS011;42008;52.934;5.884;2023-05-07T03:31:16;35.97;;;27.37;;
56136;SDS011;42008;52.934;5.884;2023-05-07T03:33:49;34.93;;;26.97;;
56136;SDS011;42008;52.934;5.884;2023-05-07T03:36:16;34.40;;;28.13;;
56136;SDS011;42008;52.934;5.884;2023-05-07T03:38:41;34.57;;;26.07;;
56136;SDS011;42008;52.934;5.884;2023-05-07T03:41:07;38.90;;;27.30;;
56136;SDS011;42008;52.934;5.884;2023-05-07T03:43:33;34.63;;;26.53;;
56136;SDS011;42008;52.934;5.884;2023-05-07T03:45:58;35.03;;;26.93;;
56136;SDS011;42008;52.934;5.884;2023-05-07T03:48:24;32.33;;;27.27;;
56136;SDS011;42008;52.934;5.884;2023-05-07T03:50:49;38.37;;;28.10;;
56136;SDS011;42008;52.934;5.884;2023-05-07T03:53:15;35.87;;;27.50;;
56136;SDS011;42008;52.934;5.884;2023-05-07T03:55:40;33.00;;;27.53;;
56136;SDS011;42008;52.934;5.884;2023-05-07T03:58:06;33.43;;;28.90;;
56136;SDS011;42008;52.934;5.884;2023-05-07T04:00:31;34.90;;;27.73;;
56136;SDS011;42008;52.934;5.884;2023-05-07T04:03:02;37.40;;;28.43;;
56136;SDS011;42008;52.934;5.884;2023-05-07T04:05:28;35.30;;;27.87;;
56136;SDS011;42008;52.934;5.884;2023-05-07T04:07:54;38.07;;;29.97;;
56136;SDS011;42008;52.934;5.884;2023-05-07T04:10:19;38.60;;;29.27;;
56136;SDS011;42008;52.934;5.884;2023-05-07T04:12:45;38.53;;;29.73;;
56136;SDS011;42008;52.934;5.884;2023-05-07T04:15:11;36.87;;;29.47;;
56136;SDS011;42008;52.934;5.884;2023-05-07T04:17:36;40.97;;;30.07;;
56136;SDS011;42008;52.934;5.884;2023-05-07T04:20:02;42.27;;;31.80;;
56136;SDS011;42008;52.934;5.884;2023-05-07T04:22:28;37.37;;;29.67;;
56136;SDS011;42008;52.934;5.884;2023-05-07T04:24:53;36.40;;;29.73;;
56136;SDS011;42008;52.934;5.884;2023-05-07T04:27:19;38.23;;;30.50;;
56136;SDS011;42008;52.934;5.884;2023-05-07T04:29:45;38.63;;;31.03;;
56136;SDS011;42008;52.934;5.884;2023-05-07T04:32:12;40.77;;;31.57;;
56136;SDS011;42008;52.934;5.884;2023-05-07T04:34:38;40.17;;;32.30;;
56136;SDS011;42008;52.934;5.884;2023-05-07T04:37:03;40.43;;;31.13;;
56136;SDS011;42008;52.934;5.884;2023-05-07T04:39:29;41.70;;;31.67;;
56136;SDS011;42008;52.934;5.884;2023-05-07T04:41:54;41.07;;;31.47;;
56136;SDS011;42008;52.934;5.884;2023-05-07T04:44:20;44.33;;;33.23;;
56136;SDS011;42008;52.934;5.884;2023-05-07T04:46:46;42.20;;;30.97;;
56136;SDS011;42008;52.934;5.884;2023-05-07T04:49:11;44.80;;;33.27;;
56136;SDS011;42008;52.934;5.884;2023-05-07T04:51:37;43.00;;;33.10;;
56136;SDS011;42008;52.934;5.884;2023-05-07T04:54:03;47.10;;;33.87;;
56136;SDS011;42008;52.934;5.884;2023-05-07T04:56:29;45.43;;;33.40;;
56136;SDS011;42008;52.934;5.884;2023-05-07T04:58:55;44.93;;;33.73;;
56136;SDS011;42008;52.934;5.884;2023-05-07T05:01:20;44.87;;;33.50;;
56136;SDS011;42008;52.934;5.884;2023-05-07T05:03:46;47.27;;;34.67;;
56136;SDS011;42008;52.934;5.884;2023-05-07T05:06:11;48.17;;;35.47;;
56136;SDS011;42008;52.934;5.884;2023-05-07T05:08:37;46.40;;;34.17;;
56136;SDS011;42008;52.934;5.884;2023-05-07T05:11:03;41.50;;;33.80;;
56136;SDS011;42008;52.934;5.884;2023-05-07T05:13:28;46.83;;;34.10;;
56136;SDS011;42008;52.934;5.884;2023-05-07T05:15:55;45.33;;;34.63;;
56136;SDS011;42008;52.934;5.884;2023-05-07T05:18:20;50.43;;;36.53;;
56136;SDS011;42008;52.934;5.884;2023-05-07T05:20:46;49.93;;;36.77;;
56136;SDS011;42008;52.934;5.884;2023-05-07T05:23:12;46.23;;;36.53;;
56136;SDS011;42008;52.934;5.884;2023-05-07T05:25:37;50.60;;;36.00;;
56136;SDS011;42008;52.934;5.884;2023-05-07T05:28:04;45.87;;;35.63;;
56136;SDS011;42008;52.934;5.884;2023-05-07T05:30:29;44.77;;;35.77;;
56136;SDS011;42008;52.934;5.884;2023-05-07T05:32:56;47.20;;;35.63;;
56136;SDS011;42008;52.934;5.884;2023-05-07T05:35:22;45.43;;;35.20;;
56136;SDS011;42008;52.934;5.884;2023-05-07T05:37:47;46.53;;;35.83;;
56136;SDS011;42008;52.934;5.884;2023-05-07T05:40:13;50.60;;;36.93;;
56136;SDS011;42008;52.934;5.884;2023-05-07T05:42:38;49.37;;;36.67;;
56136;SDS011;42008;52.934;5.884;2023-05-07T05:45:04;46.50;;;36.70;;
56136;SDS011;42008;52.934;5.884;2023-05-07T05:47:30;50.63;;;37.60;;
56136;SDS011;42008;52.934;5.884;2023-05-07T05:49:56;49.40;;;36.90;;
56136;SDS011;42008;52.934;5.884;2023-05-07T05:52:21;45.97;;;35.30;;
56136;SDS011;42008;52.934;5.884;2023-05-07T05:54:48;46.37;;;35.80;;
56136;SDS011;42008;52.934;5.884;2023-05-07T05:57:14;48.27;;;37.20;;
56136;SDS011;42008;52.934;5.884;2023-05-07T05:59:40;45.60;;;36.23;;
56136;SDS011;42008;52.934;5.884;2023-05-07T06:02:06;44.87;;;34.90;;
56136;SDS011;42008;52.934;5.884;2023-05-07T06:04:32;51.10;;;35.77;;
56136;SDS011;42008;52.934;5.884;2023-05-07T06:06:57;45.53;;;35.27;;
56136;SDS011;42008;52.934;5.884;2023-05-07T06:09:23;48.60;;;36.07;;
56136;SDS011;42008;52.934;5.884;2023-05-07T06:11:48;48.67;;;34.37;;
56136;SDS011;42008;52.934;5.884;2023-05-07T06:14:14;45.23;;;34.73;;
56136;SDS011;42008;52.934;5.884;2023-05-07T06:16:40;48.23;;;35.27;;
56136;SDS011;42008;52.934;5.884;2023-05-07T06:19:06;43.20;;;34.57;;
56136;SDS011;42008;52.934;5.884;2023-05-07T06:21:32;44.70;;;34.93;;
56136;SDS011;42008;52.934;5.884;2023-05-07T06:23:58;48.83;;;35.83;;
56136;SDS011;42008;52.934;5.884;2023-05-07T06:26:23;43.93;;;34.67;;
56136;SDS011;42008;52.934;5.884;2023-05-07T06:28:49;41.70;;;32.90;;
56136;SDS011;42008;52.934;5.884;2023-05-07T06:31:15;43.03;;;33.80;;
56136;SDS011;42008;52.934;5.884;2023-05-07T06:33:42;44.70;;;34.07;;
56136;SDS011;42008;52.934;5.884;2023-05-07T06:36:09;42.80;;;34.00;;
56136;SDS011;42008;52.934;5.884;2023-05-07T06:38:34;43.03;;;34.03;;
56136;SDS011;42008;52.934;5.884;2023-05-07T06:41:00;40.90;;;32.30;;
56136;SDS011;42008;52.934;5.884;2023-05-07T06:43:25;42.60;;;32.13;;
56136;SDS011;42008;52.934;5.884;2023-05-07T06:45:51;41.83;;;33.83;;
56136;SDS011;42008;52.934;5.884;2023-05-07T06:48:17;39.97;;;32.23;;
56136;SDS011;42008;52.934;5.884;2023-05-07T06:50:42;39.70;;;30.90;;
56136;SDS011;42008;52.934;5.884;2023-05-07T06:53:08;41.90;;;30.30;;
56136;SDS011;42008;52.934;5.884;2023-05-07T06:55:33;37.77;;;29.77;;
56136;SDS011;42008;52.934;5.884;2023-05-07T06:57:59;40.20;;;31.17;;
56136;SDS011;42008;52.934;5.884;2023-05-07T07:00:26;37.60;;;31.20;;
56136;SDS011;42008;52.934;5.884;2023-05-07T07:02:53;37.47;;;29.47;;
56136;SDS011;42008;52.934;5.884;2023-05-07T07:05:19;37.77;;;29.73;;
56136;SDS011;42008;52.934;5.884;2023-05-07T07:07:45;37.17;;;29.23;;
56136;SDS011;42008;52.934;5.884;2023-05-07T07:12:46;36.37;;;28.93;;
56136;SDS011;42008;52.934;5.884;2023-05-07T07:15:13;33.67;;;27.90;;
56136;SDS011;42008;52.934;5.884;2023-05-07T07:17:39;38.40;;;29.93;;
56136;SDS011;42008;52.934;5.884;2023-05-07T07:20:05;38.27;;;26.97;;
56136;SDS011;42008;52.934;5.884;2023-05-07T07:22:31;33.40;;;27.60;;
56136;SDS011;42008;52.934;5.884;2023-05-07T07:24:56;39.97;;;28.07;;
56136;SDS011;42008;52.934;5.884;2023-05-07T07:27:22;32.97;;;27.30;;
56136;SDS011;42008;52.934;5.884;2023-05-07T07:29:48;31.23;;;26.77;;
56136;SDS011;42008;52.934;5.884;2023-05-07T07:32:13;30.60;;;26.70;;
56136;SDS011;42008;52.934;5.884;2023-05-07T07:34:39;33.53;;;26.10;;
56136;SDS011;42008;52.934;5.884;2023-05-07T07:37:05;29.33;;;25.40;;
56136;SDS011;42008;52.934;5.884;2023-05-07T07:39:34;30.87;;;25.60;;
56136;SDS011;42008;52.934;5.884;2023-05-07T07:42:02;31.92;;;25.00;;
56136;SDS011;42008;52.934;5.884;2023-05-07T07:44:28;29.63;;;24.00;;
56136;SDS011;42008;52.934;5.884;2023-05-07T07:46:53;30.40;;;24.40;;
56136;SDS011;42008;52.934;5.884;2023-05-07T07:49:19;28.13;;;23.90;;
56136;SDS011;42008;52.934;5.884;2023-05-07T07:51:45;33.70;;;26.13;;
56136;SDS011;42008;52.934;5.884;2023-05-07T07:54:10;28.07;;;24.53;;
56136;SDS011;42008;52.934;5.884;2023-05-07T07:56:36;31.07;;;23.80;;
56136;SDS011;42008;52.934;5.884;2023-05-07T07:59:01;32.27;;;23.97;;
56136;SDS011;42008;52.934;5.884;2023-05-07T08:01:29;29.67;;;23.93;;
56136;SDS011;42008;52.934;5.884;2023-05-07T08:03:55;28.23;;;23.43;;
56136;SDS011;42008;52.934;5.884;2023-05-07T08:06:22;30.87;;;23.70;;
56136;SDS011;42008;52.934;5.884;2023-05-07T08:08:48;28.03;;;23.97;;
56136;SDS011;42008;52.934;5.884;2023-05-07T08:11:14;28.77;;;23.70;;
56136;SDS011;42008;52.934;5.884;2023-05-07T08:13:39;28.43;;;23.27;;
56136;SDS011;42008;52.934;5.884;2023-05-07T08:16:05;25.97;;;22.20;;
56136;SDS011;42008;52.934;5.884;2023-05-07T08:18:31;29.50;;;23.83;;
56136;SDS011;42008;52.934;5.884;2023-05-07T08:20:56;29.43;;;23.23;;
56136;SDS011;42008;52.934;5.884;2023-05-07T08:23:22;26.47;;;22.37;;
56136;SDS011;42008;52.934;5.884;2023-05-07T08:25:48;28.83;;;23.97;;
56136;SDS011;42008;52.934;5.884;2023-05-07T08:28:14;31.60;;;24.27;;
56136;SDS011;42008;52.934;5.884;2023-05-07T08:30:40;27.33;;;22.60;;
56136;SDS011;42008;52.934;5.884;2023-05-07T08:33:05;26.20;;;23.13;;
56136;SDS011;42008;52.934;5.884;2023-05-07T08:35:31;26.57;;;22.87;;
56136;SDS011;42008;52.934;5.884;2023-05-07T08:37:57;29.60;;;24.60;;
56136;SDS011;42008;52.934;5.884;2023-05-07T08:40:23;28.27;;;23.10;;
56136;SDS011;42008;52.934;5.884;2023-05-07T08:42:51;30.80;;;24.10;;
56136;SDS011;42008;52.934;5.884;2023-05-07T08:45:18;29.17;;;23.17;;
56136;SDS011;42008;52.934;5.884;2023-05-07T08:47:53;25.53;;;22.73;;
56136;SDS011;42008;52.934;5.884;2023-05-07T08:50:24;25.57;;;22.53;;
56136;SDS011;42008;52.934;5.884;2023-05-07T08:52:50;31.03;;;22.83;;
56136;SDS011;42008;52.934;5.884;2023-05-07T08:55:15;28.97;;;23.40;;
56136;SDS011;42008;52.934;5.884;2023-05-07T08:57:42;26.57;;;23.60;;
56136;SDS011;42008;52.934;5.884;2023-05-07T09:00:08;29.37;;;24.03;;
56136;SDS011;42008;52.934;5.884;2023-05-07T09:02:35;27.70;;;22.80;;
56136;SDS011;42008;52.934;5.884;2023-05-07T09:05:01;26.80;;;23.13;;
56136;SDS011;42008;52.934;5.884;2023-05-07T09:07:27;26.83;;;23.10;;
56136;SDS011;42008;52.934;5.884;2023-05-07T09:09:52;27.97;;;23.40;;
56136;SDS011;42008;52.934;5.884;2023-05-07T09:12:20;25.60;;;21.93;;
56136;SDS011;42008;52.934;5.884;2023-05-07T09:14:46;27.77;;;21.80;;
56136;SDS011;42008;52.934;5.884;2023-05-07T09:17:12;25.57;;;21.93;;
56136;SDS011;42008;52.934;5.884;2023-05-07T09:19:38;28.27;;;23.90;;
56136;SDS011;42008;52.934;5.884;2023-05-07T09:22:04;29.53;;;23.73;;
56136;SDS011;42008;52.934;5.884;2023-05-07T09:24:32;29.37;;;23.50;;
56136;SDS011;42008;52.934;5.884;2023-05-07T09:27:03;28.57;;;24.07;;
56136;SDS011;42008;52.934;5.884;2023-05-07T09:29:30;27.57;;;22.80;;
56136;SDS011;42008;52.934;5.884;2023-05-07T09:32:09;32.93;;;23.93;;
56136;SDS011;42008;52.934;5.884;2023-05-07T09:34:35;28.83;;;23.47;;
56136;SDS011;42008;52.934;5.884;2023-05-07T09:37:04;28.87;;;22.97;;
56136;SDS011;42008;52.934;5.884;2023-05-07T09:39:46;27.20;;;23.53;;
56136;SDS011;42008;52.934;5.884;2023-05-07T09:42:14;29.97;;;24.27;;
56136;SDS011;42008;52.934;5.884;2023-05-07T09:44:40;27.03;;;22.97;;
56136;SDS011;42008;52.934;5.884;2023-05-07T09:47:06;29.50;;;24.00;;
56136;SDS011;42008;52.934;5.884;2023-05-07T09:49:36;29.57;;;24.27;;
56136;SDS011;42008;52.934;5.884;2023-05-07T09:52:04;26.08;;;22.70;;
56136;SDS011;42008;52.934;5.884;2023-05-07T09:54:33;28.10;;;23.07;;
56136;SDS011;42008;52.934;5.884;2023-05-07T09:57:03;27.60;;;23.07;;
56136;SDS011;42008;52.934;5.884;2023-05-07T09:59:31;28.13;;;23.10;;
56136;SDS011;42008;52.934;5.884;2023-05-07T10:01:58;27.73;;;22.47;;
56136;SDS011;42008;52.934;5.884;2023-05-07T10:04:25;27.77;;;22.93;;
56136;SDS011;42008;52.934;5.884;2023-05-07T10:06:51;27.17;;;23.37;;
56136;SDS011;42008;52.934;5.884;2023-05-07T10:09:18;29.73;;;24.23;;
56136;SDS011;42008;52.934;5.884;2023-05-07T10:11:44;28.00;;;23.33;;
56136;SDS011;42008;52.934;5.884;2023-05-07T10:14:13;27.67;;;22.70;;
56136;SDS011;42008;52.934;5.884;2023-05-07T10:16:39;27.50;;;23.27;;
56136;SDS011;42008;52.934;5.884;2023-05-07T10:19:06;27.90;;;23.07;;
56136;SDS011;42008;52.934;5.884;2023-05-07T10:21:38;29.47;;;24.27;;
56136;SDS011;42008;52.934;5.884;2023-05-07T10:24:10;30.47;;;23.80;;
56136;SDS011;42008;52.934;5.884;2023-05-07T10:26:48;30.73;;;24.20;;
56136;SDS011;42008;52.934;5.884;2023-05-07T10:33:04;30.03;;;24.50;;
56136;SDS011;42008;52.934;5.884;2023-05-07T10:35:02;27.40;;;23.67;;
56136;SDS011;42008;52.934;5.884;2023-05-07T10:37:34;27.53;;;23.77;;
56136;SDS011;42008;52.934;5.884;2023-05-07T10:40:00;29.83;;;24.00;;
56136;SDS011;42008;52.934;5.884;2023-05-07T10:42:26;27.13;;;23.70;;
56136;SDS011;42008;52.934;5.884;2023-05-07T10:44:51;27.98;;;23.38;;
56136;SDS011;42008;52.934;5.884;2023-05-07T10:47:17;29.20;;;23.25;;
56136;SDS011;42008;52.934;5.884;2023-05-07T10:52:19;29.23;;;23.48;;
56136;SDS011;42008;52.934;5.884;2023-05-07T10:57:42;26.67;;;23.02;;
56136;SDS011;42008;52.934;5.884;2023-05-07T11:00:40;26.98;;;22.15;;
56136;SDS011;42008;52.934;5.884;2023-05-07T11:05:30;23.83;;;19.85;;
56136;SDS011;42008;52.934;5.884;2023-05-07T11:08:01;25.83;;;22.42;;
56136;SDS011;42008;52.934;5.884;2023-05-07T11:13:15;29.13;;;21.98;;
56136;SDS011;42008;52.934;5.884;2023-05-07T11:15:43;24.75;;;21.05;;
56136;SDS011;42008;52.934;5.884;2023-05-07T11:18:11;24.15;;;20.85;;
56136;SDS011;42008;52.934;5.884;2023-05-07T11:23:54;26.20;;;22.10;;
56136;SDS011;42008;52.934;5.884;2023-05-07T11:26:06;23.45;;;20.88;;
56136;SDS011;42008;52.934;5.884;2023-05-07T11:28:36;22.92;;;19.52;;
56136;SDS011;42008;52.934;5.884;2023-05-07T11:31:03;22.65;;;19.15;;
56136;SDS011;42008;52.934;5.884;2023-05-07T11:33:32;21.23;;;18.67;;
56136;SDS011;42008;52.934;5.884;2023-05-07T11:35:59;26.42;;;19.30;;
56136;SDS011;42008;52.934;5.884;2023-05-07T11:38:25;23.13;;;20.10;;
56136;SDS011;42008;52.934;5.884;2023-05-07T11:40:57;27.85;;;20.05;;
56136;SDS011;42008;52.934;5.884;2023-05-07T11:43:25;25.40;;;20.50;;
56136;SDS011;42008;52.934;5.884;2023-05-07T11:45:51;23.05;;;19.02;;
56136;SDS011;42008;52.934;5.884;2023-05-07T11:48:17;22.92;;;19.27;;
56136;SDS011;42008;52.934;5.884;2023-05-07T11:50:50;22.13;;;18.55;;
56136;SDS011;42008;52.934;5.884;2023-05-07T11:53:16;24.08;;;19.33;;
56136;SDS011;42008;52.934;5.884;2023-05-07T11:55:42;20.83;;;16.85;;
56136;SDS011;42008;52.934;5.884;2023-05-07T11:58:09;20.20;;;17.67;;
56136;SDS011;42008;52.934;5.884;2023-05-07T12:00:37;23.63;;;18.85;;
56136;SDS011;42008;52.934;5.884;2023-05-07T12:03:05;25.58;;;20.50;;
56136;SDS011;42008;52.934;5.884;2023-05-07T12:05:31;21.88;;;19.50;;
56136;SDS011;42008;52.934;5.884;2023-05-07T12:07:57;20.25;;;18.05;;
56136;SDS011;42008;52.934;5.884;2023-05-07T12:10:23;24.08;;;20.27;;
56136;SDS011;42008;52.934;5.884;2023-05-07T12:12:49;23.77;;;20.30;;
56136;SDS011;42008;52.934;5.884;2023-05-07T12:15:22;24.25;;;19.92;;
56136;SDS011;42008;52.934;5.884;2023-05-07T12:17:48;25.52;;;19.33;;
56136;SDS011;42008;52.934;5.884;2023-05-07T12:20:14;22.85;;;19.40;;
56136;SDS011;42008;52.934;5.884;2023-05-07T12:22:40;22.15;;;18.67;;
56136;SDS011;42008;52.934;5.884;2023-05-07T12:25:06;21.17;;;18.67;;
56136;SDS011;42008;52.934;5.884;2023-05-07T12:27:32;19.20;;;17.02;;
56136;SDS011;42008;52.934;5.884;2023-05-07T12:30:01;19.73;;;17.42;;
56136;SDS011;42008;52.934;5.884;2023-05-07T12:32:27;20.73;;;16.63;;
56136;SDS011;42008;52.934;5.884;2023-05-07T12:34:53;18.98;;;16.40;;
56136;SDS011;42008;52.934;5.884;2023-05-07T12:37:22;20.20;;;17.08;;
56136;SDS011;42008;52.934;5.884;2023-05-07T12:39:49;19.42;;;16.58;;
56136;SDS011;42008;52.934;5.884;2023-05-07T12:42:28;21.75;;;16.15;;
56136;SDS011;42008;52.934;5.884;2023-05-07T12:44:58;18.05;;;16.15;;
56136;SDS011;42008;52.934;5.884;2023-05-07T12:47:24;17.45;;;15.35;;
56136;SDS011;42008;52.934;5.884;2023-05-07T12:49:49;19.77;;;17.35;;
56136;SDS011;42008;52.934;5.884;2023-05-07T12:52:15;19.33;;;16.48;;
56136;SDS011;42008;52.934;5.884;2023-05-07T12:54:41;19.27;;;16.15;;
56136;SDS011;42008;52.934;5.884;2023-05-07T12:57:07;18.63;;;15.15;;
56136;SDS011;42008;52.934;5.884;2023-05-07T12:59:37;19.90;;;16.58;;
56136;SDS011;42008;52.934;5.884;2023-05-07T13:02:05;18.63;;;15.43;;
56136;SDS011;42008;52.934;5.884;2023-05-07T13:04:31;18.10;;;15.60;;
56136;SDS011;42008;52.934;5.884;2023-05-07T13:06:57;20.15;;;16.83;;
56136;SDS011;42008;52.934;5.884;2023-05-07T13:09:23;18.83;;;15.68;;
56136;SDS011;42008;52.934;5.884;2023-05-07T13:11:49;17.75;;;14.73;;
56136;SDS011;42008;52.934;5.884;2023-05-07T13:14:15;17.83;;;15.93;;
56136;SDS011;42008;52.934;5.884;2023-05-07T13:16:40;18.48;;;15.70;;
56136;SDS011;42008;52.934;5.884;2023-05-07T13:19:06;17.55;;;13.93;;
56136;SDS011;42008;52.934;5.884;2023-05-07T13:21:32;15.90;;;14.30;;
56136;SDS011;42008;52.934;5.884;2023-05-07T13:23:57;22.88;;;14.45;;
56136;SDS011;42008;52.934;5.884;2023-05-07T13:26:24;17.10;;;14.82;;
56136;SDS011;42008;52.934;5.884;2023-05-07T13:28:50;17.20;;;15.40;;
56136;SDS011;42008;52.934;5.884;2023-05-07T13:31:16;18.85;;;14.25;;
56136;SDS011;42008;52.934;5.884;2023-05-07T13:33:42;16.35;;;13.65;;
56136;SDS011;42008;52.934;5.884;2023-05-07T13:36:08;14.95;;;12.90;;
56136;SDS011;42008;52.934;5.884;2023-05-07T13:38:34;15.30;;;13.70;;
56136;SDS011;42008;52.934;5.884;2023-05-07T13:41:00;16.40;;;13.15;;
56136;SDS011;42008;52.934;5.884;2023-05-07T13:43:25;18.00;;;12.80;;
56136;SDS011;42008;52.934;5.884;2023-05-07T13:45:51;18.30;;;14.05;;
56136;SDS011;42008;52.934;5.884;2023-05-07T13:48:16;16.92;;;13.30;;
56136;SDS011;42008;52.934;5.884;2023-05-07T13:50:42;16.13;;;13.35;;
56136;SDS011;42008;52.934;5.884;2023-05-07T13:53:08;14.63;;;12.93;;
56136;SDS011;42008;52.934;5.884;2023-05-07T13:55:33;15.55;;;12.98;;
56136;SDS011;42008;52.934;5.884;2023-05-07T13:58:00;14.88;;;12.95;;
56136;SDS011;42008;52.934;5.884;2023-05-07T14:00:27;16.13;;;12.35;;
56136;SDS011;42008;52.934;5.884;2023-05-07T14:02:54;16.63;;;13.02;;
56136;SDS011;42008;52.934;5.884;2023-05-07T14:05:20;18.10;;;11.60;;
56136;SDS011;42008;52.934;5.884;2023-05-07T14:07:53;14.90;;;12.30;;
56136;SDS011;42008;52.934;5.884;2023-05-07T14:12:47;13.02;;;11.63;;
56136;SDS011;42008;52.934;5.884;2023-05-07T14:15:12;13.75;;;10.75;;
56136;SDS011;42008;52.934;5.884;2023-05-07T14:17:38;13.25;;;10.95;;
56136;SDS011;42008;52.934;5.884;2023-05-07T14:20:04;10.23;;;9.02;;
56136;SDS011;42008;52.934;5.884;2023-05-07T14:22:33;11.98;;;10.68;;
56136;SDS011;42008;52.934;5.884;2023-05-07T14:24:58;13.38;;;10.05;;
56136;SDS011;42008;52.934;5.884;2023-05-07T14:27:24;12.43;;;10.23;;
56136;SDS011;42008;52.934;5.884;2023-05-07T14:29:49;10.38;;;9.27;;
56136;SDS011;42008;52.934;5.884;2023-05-07T14:32:16;12.52;;;9.55;;
56136;SDS011;42008;52.934;5.884;2023-05-07T14:34:43;13.05;;;9.82;;
56136;SDS011;42008;52.934;5.884;2023-05-07T14:37:09;12.00;;;10.65;;
56136;SDS011;42008;52.934;5.884;2023-05-07T14:39:35;12.68;;;10.70;;